CheckWX is a tool to help pilots better visualize weather data.  It is not intended as a substitute for an official pre-flight weather briefing.

13:42:49 UTC

VTBO METAR
Trat Airport
Thailand
Current

3 hours ago

VTBO 151100Z 25012KT 3000 RA SCT015 SCT018CB OVC080 26/25 Q1006
Observed
Sep-15 @ 11:00 UTC
Wind
  • 250° at 12 KTS
Visibility
3,000 meters
Flight Rules
IFR
Conditions
Rain
Cloud Levels
  • Scattered at 1,500' AGL
  • Scattered at 1,800' AGL
  • Overcast at 8,000' AGL
Temperature
26°C / 79°F
Dewpoint
25°C / 77°F
Humidity
94%
Altimeter
29.7" Hg
Pressure
1005.92 hPa
Previous

4 hours ago

VTBO 151000Z 27010KT 4000 RA SCT015 SCT018CB OVC080 26/25 Q1005
Observed
Sep-15 @ 10:00 UTC
Wind
  • 270° at 10 KTS
Visibility
4,000 meters
Flight Rules
IFR
Conditions
Rain
Cloud Levels
  • Scattered at 1,500' AGL
  • Scattered at 1,800' AGL
  • Overcast at 8,000' AGL
Temperature
26°C / 79°F
Dewpoint
25°C / 77°F
Humidity
94%
Altimeter
29.68" Hg
Pressure
1004.92 hPa
Previous

5 hours ago

VTBO 150900Z 27008KT 3000 RA SCT015 SCT018CB OVC080 25/25 Q1005
Observed
Sep-15 @ 09:00 UTC
Wind
  • 270° at 8 KTS
Visibility
3,000 meters
Flight Rules
IFR
Conditions
Rain
Cloud Levels
  • Scattered at 1,500' AGL
  • Scattered at 1,800' AGL
  • Overcast at 8,000' AGL
Temperature
25°C / 77°F
Dewpoint
25°C / 77°F
Humidity
100%
Altimeter
29.68" Hg
Pressure
1004.92 hPa